sensor_id;sensor_type;location;lat;lon;timestamp;P1;durP1;ratioP1;P2;durP2;ratioP2
79284;SDS011;68734;50.452;11.636;2023-11-18T00:04:20;5.47;;;4.32;;
79284;SDS011;68734;50.452;11.636;2023-11-18T00:06:48;3.90;;;1.33;;
79284;SDS011;68734;50.452;11.636;2023-11-18T00:09:14;14.98;;;7.75;;
79284;SDS011;68734;50.452;11.636;2023-11-18T00:11:42;5.70;;;2.85;;
79284;SDS011;68734;50.452;11.636;2023-11-18T00:14:08;2.72;;;1.20;;
79284;SDS011;68734;50.452;11.636;2023-11-18T00:16:37;3.22;;;1.75;;
79284;SDS011;68734;50.452;11.636;2023-11-18T00:19:03;8.55;;;4.53;;
79284;SDS011;68734;50.452;11.636;2023-11-18T00:21:34;2.47;;;1.40;;
79284;SDS011;68734;50.452;11.636;2023-11-18T00:24:01;6.43;;;1.45;;
79284;SDS011;68734;50.452;11.636;2023-11-18T00:28:50;1.25;;;0.75;;
79284;SDS011;68734;50.452;11.636;2023-11-18T00:31:15;1.92;;;1.05;;
79284;SDS011;68734;50.452;11.636;2023-11-18T00:33:41;2.20;;;1.30;;
79284;SDS011;68734;50.452;11.636;2023-11-18T00:36:06;3.65;;;1.95;;
79284;SDS011;68734;50.452;11.636;2023-11-18T00:38:32;1.70;;;0.90;;
79284;SDS011;68734;50.452;11.636;2023-11-18T00:40:58;2.75;;;1.20;;
79284;SDS011;68734;50.452;11.636;2023-11-18T00:43:23;1.38;;;1.17;;
79284;SDS011;68734;50.452;11.636;2023-11-18T00:45:49;2.97;;;1.70;;
79284;SDS011;68734;50.452;11.636;2023-11-18T00:48:14;2.13;;;1.38;;
79284;SDS011;68734;50.452;11.636;2023-11-18T00:53:05;3.10;;;2.00;;
79284;SDS011;68734;50.452;11.636;2023-11-18T00:55:30;2.97;;;1.50;;
79284;SDS011;68734;50.452;11.636;2023-11-18T00:57:58;4.57;;;1.23;;
79284;SDS011;68734;50.452;11.636;2023-11-18T01:00:24;1.73;;;1.15;;
79284;SDS011;68734;50.452;11.636;2023-11-18T01:02:51;4.15;;;2.60;;
79284;SDS011;68734;50.452;11.636;2023-11-18T01:05:18;1.30;;;0.80;;
79284;SDS011;68734;50.452;11.636;2023-11-18T01:07:44;2.35;;;0.93;;
79284;SDS011;68734;50.452;11.636;2023-11-18T01:10:10;1.88;;;1.23;;
79284;SDS011;68734;50.452;11.636;2023-11-18T01:12:36;3.55;;;3.25;;
79284;SDS011;68734;50.452;11.636;2023-11-18T01:17:49;0.95;;;0.55;;
79284;SDS011;68734;50.452;11.636;2023-11-18T01:20:14;2.97;;;0.90;;
79284;SDS011;68734;50.452;11.636;2023-11-18T01:22:46;1.15;;;0.77;;
79284;SDS011;68734;50.452;11.636;2023-11-18T01:25:13;2.38;;;0.90;;
79284;SDS011;68734;50.452;11.636;2023-11-18T01:27:41;1.20;;;0.75;;
79284;SDS011;68734;50.452;11.636;2023-11-18T01:30:06;1.23;;;0.80;;
79284;SDS011;68734;50.452;11.636;2023-11-18T01:32:32;2.63;;;0.88;;
79284;SDS011;68734;50.452;11.636;2023-11-18T01:34:58;1.33;;;0.70;;
79284;SDS011;68734;50.452;11.636;2023-11-18T01:37:23;0.98;;;0.70;;
79284;SDS011;68734;50.452;11.636;2023-11-18T01:41:04;1.48;;;0.75;;
79284;SDS011;68734;50.452;11.636;2023-11-18T01:43:34;1.13;;;0.88;;
79284;SDS011;68734;50.452;11.636;2023-11-18T01:46:02;0.82;;;0.70;;
79284;SDS011;68734;50.452;11.636;2023-11-18T01:48:28;3.22;;;1.10;;
79284;SDS011;68734;50.452;11.636;2023-11-18T01:50:56;1.83;;;0.90;;
79284;SDS011;68734;50.452;11.636;2023-11-18T01:53:23;2.33;;;1.10;;
79284;SDS011;68734;50.452;11.636;2023-11-18T01:55:49;2.25;;;1.27;;
79284;SDS011;68734;50.452;11.636;2023-11-18T01:58:15;1.38;;;0.95;;
79284;SDS011;68734;50.452;11.636;2023-11-18T02:00:45;1.20;;;0.80;;
79284;SDS011;68734;50.452;11.636;2023-11-18T02:05:18;1.48;;;0.88;;
79284;SDS011;68734;50.452;11.636;2023-11-18T02:07:43;1.33;;;0.80;;
79284;SDS011;68734;50.452;11.636;2023-11-18T02:10:11;2.05;;;1.00;;
79284;SDS011;68734;50.452;11.636;2023-11-18T02:12:44;3.30;;;0.80;;
79284;SDS011;68734;50.452;11.636;2023-11-18T02:15:16;0.90;;;0.70;;
79284;SDS011;68734;50.452;11.636;2023-11-18T02:17:43;2.28;;;0.80;;
79284;SDS011;68734;50.452;11.636;2023-11-18T02:20:13;1.20;;;0.68;;
79284;SDS011;68734;50.452;11.636;2023-11-18T02:22:42;1.38;;;0.70;;
79284;SDS011;68734;50.452;11.636;2023-11-18T02:25:13;2.95;;;1.02;;
79284;SDS011;68734;50.452;11.636;2023-11-18T02:29:17;1.00;;;0.70;;
79284;SDS011;68734;50.452;11.636;2023-11-18T02:31:46;2.25;;;1.20;;
79284;SDS011;68734;50.452;11.636;2023-11-18T02:34:18;1.10;;;0.85;;
79284;SDS011;68734;50.452;11.636;2023-11-18T02:36:48;1.73;;;0.98;;
79284;SDS011;68734;50.452;11.636;2023-11-18T02:39:22;2.70;;;0.77;;
79284;SDS011;68734;50.452;11.636;2023-11-18T02:41:54;1.92;;;0.90;;
79284;SDS011;68734;50.452;11.636;2023-11-18T02:44:24;1.45;;;0.90;;
79284;SDS011;68734;50.452;11.636;2023-11-18T02:46:52;1.40;;;0.80;;
79284;SDS011;68734;50.452;11.636;2023-11-18T02:49:18;1.27;;;0.85;;
79284;SDS011;68734;50.452;11.636;2023-11-18T02:54:01;1.25;;;0.90;;
79284;SDS011;68734;50.452;11.636;2023-11-18T02:56:26;1.40;;;0.77;;
79284;SDS011;68734;50.452;11.636;2023-11-18T02:58:52;2.47;;;0.80;;
79284;SDS011;68734;50.452;11.636;2023-11-18T03:01:17;1.17;;;0.63;;
79284;SDS011;68734;50.452;11.636;2023-11-18T03:03:49;1.77;;;0.57;;
79284;SDS011;68734;50.452;11.636;2023-11-18T03:06:15;1.90;;;1.15;;
79284;SDS011;68734;50.452;11.636;2023-11-18T03:08:42;2.13;;;1.25;;
79284;SDS011;68734;50.452;11.636;2023-11-18T03:11:08;3.95;;;1.48;;
79284;SDS011;68734;50.452;11.636;2023-11-18T03:13:34;2.33;;;1.67;;
79284;SDS011;68734;50.452;11.636;2023-11-18T03:18:22;3.60;;;1.95;;
79284;SDS011;68734;50.452;11.636;2023-11-18T03:20:49;2.58;;;1.33;;
79284;SDS011;68734;50.452;11.636;2023-11-18T03:23:14;5.65;;;1.67;;
79284;SDS011;68734;50.452;11.636;2023-11-18T03:25:40;2.83;;;1.80;;
79284;SDS011;68734;50.452;11.636;2023-11-18T03:28:10;2.78;;;1.95;;
79284;SDS011;68734;50.452;11.636;2023-11-18T03:30:35;1.80;;;1.02;;
79284;SDS011;68734;50.452;11.636;2023-11-18T03:33:02;2.58;;;1.55;;
79284;SDS011;68734;50.452;11.636;2023-11-18T03:35:29;3.38;;;1.15;;
79284;SDS011;68734;50.452;11.636;2023-11-18T03:37:55;2.90;;;1.08;;
79284;SDS011;68734;50.452;11.636;2023-11-18T03:42:50;3.17;;;1.05;;
79284;SDS011;68734;50.452;11.636;2023-11-18T03:45:18;2.28;;;0.90;;
79284;SDS011;68734;50.452;11.636;2023-11-18T03:47:44;2.78;;;1.38;;
79284;SDS011;68734;50.452;11.636;2023-11-18T03:50:10;5.82;;;1.40;;
79284;SDS011;68734;50.452;11.636;2023-11-18T03:52:38;2.90;;;1.70;;
79284;SDS011;68734;50.452;11.636;2023-11-18T03:55:03;2.67;;;1.17;;
79284;SDS011;68734;50.452;11.636;2023-11-18T03:57:31;1.50;;;1.20;;
79284;SDS011;68734;50.452;11.636;2023-11-18T03:59:56;2.58;;;1.33;;
79284;SDS011;68734;50.452;11.636;2023-11-18T04:02:22;1.50;;;1.00;;
79284;SDS011;68734;50.452;11.636;2023-11-18T04:06:25;1.73;;;0.90;;
79284;SDS011;68734;50.452;11.636;2023-11-18T04:08:51;2.60;;;1.38;;
79284;SDS011;68734;50.452;11.636;2023-11-18T04:11:16;1.33;;;0.98;;
79284;SDS011;68734;50.452;11.636;2023-11-18T04:13:42;2.00;;;0.93;;
79284;SDS011;68734;50.452;11.636;2023-11-18T04:16:12;1.80;;;1.00;;
79284;SDS011;68734;50.452;11.636;2023-11-18T04:18:44;5.78;;;0.95;;
79284;SDS011;68734;50.452;11.636;2023-11-18T04:21:10;2.47;;;0.90;;
79284;SDS011;68734;50.452;11.636;2023-11-18T04:23:37;1.42;;;0.85;;
79284;SDS011;68734;50.452;11.636;2023-11-18T04:26:06;4.32;;;2.28;;
79284;SDS011;68734;50.452;11.636;2023-11-18T04:30:24;1.63;;;0.98;;
79284;SDS011;68734;50.452;11.636;2023-11-18T04:32:52;1.83;;;1.23;;
79284;SDS011;68734;50.452;11.636;2023-11-18T04:35:19;3.92;;;1.08;;
79284;SDS011;68734;50.452;11.636;2023-11-18T04:37:47;3.83;;;1.15;;
79284;SDS011;68734;50.452;11.636;2023-11-18T04:40:13;2.75;;;1.50;;
79284;SDS011;68734;50.452;11.636;2023-11-18T04:42:39;2.03;;;1.38;;
79284;SDS011;68734;50.452;11.636;2023-11-18T04:45:05;2.83;;;1.17;;
79284;SDS011;68734;50.452;11.636;2023-11-18T04:47:30;1.80;;;1.05;;
79284;SDS011;68734;50.452;11.636;2023-11-18T04:49:56;2.28;;;1.23;;
79284;SDS011;68734;50.452;11.636;2023-11-18T04:53:08;4.63;;;1.00;;
79284;SDS011;68734;50.452;11.636;2023-11-18T04:55:37;1.55;;;1.33;;
79284;SDS011;68734;50.452;11.636;2023-11-18T04:58:05;1.58;;;0.95;;
79284;SDS011;68734;50.452;11.636;2023-11-18T05:00:31;1.75;;;1.15;;
79284;SDS011;68734;50.452;11.636;2023-11-18T05:03:04;2.75;;;1.67;;
79284;SDS011;68734;50.452;11.636;2023-11-18T05:05:30;2.78;;;1.27;;
79284;SDS011;68734;50.452;11.636;2023-11-18T05:07:59;7.47;;;1.60;;
79284;SDS011;68734;50.452;11.636;2023-11-18T05:10:24;1.40;;;1.10;;
79284;SDS011;68734;50.452;11.636;2023-11-18T05:12:50;1.20;;;0.90;;
79284;SDS011;68734;50.452;11.636;2023-11-18T05:17:22;0.98;;;0.80;;
79284;SDS011;68734;50.452;11.636;2023-11-18T05:19:51;1.50;;;0.98;;
79284;SDS011;68734;50.452;11.636;2023-11-18T05:22:16;1.60;;;1.20;;
79284;SDS011;68734;50.452;11.636;2023-11-18T05:24:43;1.75;;;1.20;;
79284;SDS011;68734;50.452;11.636;2023-11-18T05:27:09;5.10;;;1.73;;
79284;SDS011;68734;50.452;11.636;2023-11-18T05:29:37;2.47;;;1.20;;
79284;SDS011;68734;50.452;11.636;2023-11-18T05:32:02;2.83;;;1.75;;
79284;SDS011;68734;50.452;11.636;2023-11-18T05:34:28;2.70;;;1.23;;
79284;SDS011;68734;50.452;11.636;2023-11-18T05:36:53;1.55;;;1.10;;
79284;SDS011;68734;50.452;11.636;2023-11-18T05:41:35;4.53;;;1.10;;
79284;SDS011;68734;50.452;11.636;2023-11-18T05:44:04;1.83;;;1.15;;
79284;SDS011;68734;50.452;11.636;2023-11-18T05:46:34;1.85;;;1.20;;
79284;SDS011;68734;50.452;11.636;2023-11-18T05:49:03;1.50;;;1.00;;
79284;SDS011;68734;50.452;11.636;2023-11-18T05:51:33;1.60;;;0.98;;
79284;SDS011;68734;50.452;11.636;2023-11-18T05:54:00;1.35;;;1.13;;
79284;SDS011;68734;50.452;11.636;2023-11-18T05:56:26;1.55;;;1.20;;
79284;SDS011;68734;50.452;11.636;2023-11-18T05:58:52;2.35;;;1.15;;
79284;SDS011;68734;50.452;11.636;2023-11-18T06:01:21;1.58;;;1.15;;
79284;SDS011;68734;50.452;11.636;2023-11-18T06:05:32;1.77;;;0.93;;
79284;SDS011;68734;50.452;11.636;2023-11-18T06:08:00;2.05;;;1.23;;
79284;SDS011;68734;50.452;11.636;2023-11-18T06:10:25;1.17;;;0.80;;
79284;SDS011;68734;50.452;11.636;2023-11-18T06:12:51;2.45;;;1.08;;
79284;SDS011;68734;50.452;11.636;2023-11-18T06:15:19;1.95;;;0.90;;
79284;SDS011;68734;50.452;11.636;2023-11-18T06:17:46;1.30;;;0.90;;
79284;SDS011;68734;50.452;11.636;2023-11-18T06:20:11;3.92;;;1.48;;
79284;SDS011;68734;50.452;11.636;2023-11-18T06:22:41;1.90;;;1.25;;
79284;SDS011;68734;50.452;11.636;2023-11-18T06:25:07;2.65;;;1.40;;
79284;SDS011;68734;50.452;11.636;2023-11-18T06:29:01;1.73;;;1.23;;
79284;SDS011;68734;50.452;11.636;2023-11-18T06:31:27;2.70;;;1.23;;
79284;SDS011;68734;50.452;11.636;2023-11-18T06:33:55;4.63;;;1.15;;
79284;SDS011;68734;50.452;11.636;2023-11-18T06:36:21;3.90;;;1.10;;
79284;SDS011;68734;50.452;11.636;2023-11-18T06:38:48;3.03;;;1.40;;
79284;SDS011;68734;50.452;11.636;2023-11-18T06:41:17;2.03;;;1.13;;
79284;SDS011;68734;50.452;11.636;2023-11-18T06:43:44;2.05;;;1.20;;
79284;SDS011;68734;50.452;11.636;2023-11-18T06:46:16;1.30;;;0.90;;
79284;SDS011;68734;50.452;11.636;2023-11-18T06:52:01;1.60;;;1.10;;
79284;SDS011;68734;50.452;11.636;2023-11-18T06:54:30;1.67;;;1.13;;
79284;SDS011;68734;50.452;11.636;2023-11-18T06:56:58;4.88;;;1.23;;
79284;SDS011;68734;50.452;11.636;2023-11-18T06:59:23;1.63;;;1.02;;
79284;SDS011;68734;50.452;11.636;2023-11-18T07:01:51;3.92;;;1.50;;
79284;SDS011;68734;50.452;11.636;2023-11-18T07:04:17;2.38;;;1.38;;
79284;SDS011;68734;50.452;11.636;2023-11-18T07:06:42;3.35;;;1.35;;
79284;SDS011;68734;50.452;11.636;2023-11-18T07:09:13;2.08;;;1.23;;
79284;SDS011;68734;50.452;11.636;2023-11-18T07:11:42;2.42;;;1.50;;
79284;SDS011;68734;50.452;11.636;2023-11-18T07:15:29;1.60;;;1.08;;
79284;SDS011;68734;50.452;11.636;2023-11-18T07:17:55;1.90;;;1.08;;
79284;SDS011;68734;50.452;11.636;2023-11-18T07:20:20;4.80;;;2.40;;
79284;SDS011;68734;50.452;11.636;2023-11-18T07:22:46;8.35;;;3.55;;
79284;SDS011;68734;50.452;11.636;2023-11-18T07:25:14;5.07;;;2.70;;
79284;SDS011;68734;50.452;11.636;2023-11-18T07:27:39;4.40;;;2.92;;
79284;SDS011;68734;50.452;11.636;2023-11-18T07:30:05;5.85;;;3.67;;
79284;SDS011;68734;50.452;11.636;2023-11-18T07:32:32;10.00;;;2.95;;
79284;SDS011;68734;50.452;11.636;2023-11-18T07:34:58;5.40;;;3.40;;
79284;SDS011;68734;50.452;11.636;2023-11-18T07:39:09;22.30;;;10.27;;
79284;SDS011;68734;50.452;11.636;2023-11-18T07:41:41;15.93;;;9.38;;
79284;SDS011;68734;50.452;11.636;2023-11-18T07:44:09;11.68;;;6.47;;
79284;SDS011;68734;50.452;11.636;2023-11-18T07:46:37;12.75;;;6.57;;
79284;SDS011;68734;50.452;11.636;2023-11-18T07:49:03;17.95;;;7.28;;
79284;SDS011;68734;50.452;11.636;2023-11-18T07:51:29;11.65;;;7.75;;
79284;SDS011;68734;50.452;11.636;2023-11-18T07:53:55;12.55;;;7.28;;
79284;SDS011;68734;50.452;11.636;2023-11-18T07:56:20;7.38;;;5.03;;
79284;SDS011;68734;50.452;11.636;2023-11-18T07:58:48;7.10;;;4.30;;
79284;SDS011;68734;50.452;11.636;2023-11-18T08:02:41;9.57;;;5.22;;
79284;SDS011;68734;50.452;11.636;2023-11-18T08:05:07;8.90;;;5.05;;
79284;SDS011;68734;50.452;11.636;2023-11-18T08:07:33;6.53;;;4.68;;
79284;SDS011;68734;50.452;11.636;2023-11-18T08:10:00;12.20;;;6.68;;
79284;SDS011;68734;50.452;11.636;2023-11-18T08:12:29;12.73;;;7.50;;
79284;SDS011;68734;50.452;11.636;2023-11-18T08:14:55;12.55;;;8.13;;
79284;SDS011;68734;50.452;11.636;2023-11-18T08:17:20;13.32;;;7.32;;
79284;SDS011;68734;50.452;11.636;2023-11-18T08:19:46;10.30;;;6.28;;
79284;SDS011;68734;50.452;11.636;2023-11-18T08:22:11;6.47;;;4.75;;
79284;SDS011;68734;50.452;11.636;2023-11-18T08:26:27;6.18;;;3.10;;
79284;SDS011;68734;50.452;11.636;2023-11-18T08:28:53;9.25;;;3.95;;
79284;SDS011;68734;50.452;11.636;2023-11-18T08:31:18;4.22;;;2.47;;
79284;SDS011;68734;50.452;11.636;2023-11-18T08:33:44;4.32;;;2.90;;
79284;SDS011;68734;50.452;11.636;2023-11-18T08:36:11;4.35;;;2.47;;
79284;SDS011;68734;50.452;11.636;2023-11-18T08:38:37;16.40;;;8.48;;
79284;SDS011;68734;50.452;11.636;2023-11-18T08:41:03;11.98;;;6.97;;
79284;SDS011;68734;50.452;11.636;2023-11-18T08:43:34;9.85;;;5.30;;
79284;SDS011;68734;50.452;11.636;2023-11-18T08:46:01;8.68;;;5.03;;
79284;SDS011;68734;50.452;11.636;2023-11-18T08:50:41;14.85;;;6.80;;
79284;SDS011;68734;50.452;11.636;2023-11-18T08:53:08;9.00;;;4.05;;
79284;SDS011;68734;50.452;11.636;2023-11-18T08:55:34;12.23;;;5.03;;
79284;SDS011;68734;50.452;11.636;2023-11-18T08:58:15;9.43;;;4.03;;
79284;SDS011;68734;50.452;11.636;2023-11-18T09:00:45;6.28;;;2.80;;
79284;SDS011;68734;50.452;11.636;2023-11-18T09:03:19;6.28;;;3.47;;
79284;SDS011;68734;50.452;11.636;2023-11-18T09:06:09;6.45;;;2.80;;
79284;SDS011;68734;50.452;11.636;2023-11-18T09:08:53;6.78;;;3.42;;
79284;SDS011;68734;50.452;11.636;2023-11-18T09:11:19;4.47;;;2.70;;
79284;SDS011;68734;50.452;11.636;2023-11-18T09:14:47;2.60;;;1.77;;
79284;SDS011;68734;50.452;11.636;2023-11-18T09:17:16;2.00;;;1.45;;
79284;SDS011;68734;50.452;11.636;2023-11-18T09:19:42;1.67;;;1.35;;
79284;SDS011;68734;50.452;11.636;2023-11-18T09:22:07;4.72;;;1.45;;
79284;SDS011;68734;50.452;11.636;2023-11-18T09:24:38;2.30;;;1.50;;
79284;SDS011;68734;50.452;11.636;2023-11-18T09:27:03;2.38;;;1.05;;
79284;SDS011;68734;50.452;11.636;2023-11-18T09:29:31;2.33;;;1.25;;
79284;SDS011;68734;50.452;11.636;2023-11-18T09:31:58;3.00;;;1.48;;
79284;SDS011;68734;50.452;11.636;2023-11-18T09:34:24;2.60;;;1.35;;
79284;SDS011;68734;50.452;11.636;2023-11-18T09:37:48;6.53;;;1.38;;
79284;SDS011;68734;50.452;11.636;2023-11-18T09:40:13;2.63;;;1.45;;
79284;SDS011;68734;50.452;11.636;2023-11-18T09:42:40;5.60;;;1.38;;
79284;SDS011;68734;50.452;11.636;2023-11-18T09:45:09;1.70;;;1.08;;
79284;SDS011;68734;50.452;11.636;2023-11-18T09:47:47;1.30;;;0.95;;
79284;SDS011;68734;50.452;11.636;2023-11-18T09:50:14;2.35;;;1.10;;
79284;SDS011;68734;50.452;11.636;2023-11-18T09:52:47;1.88;;;1.15;;
79284;SDS011;68734;50.452;11.636;2023-11-18T09:55:26;5.25;;;1.40;;
79284;SDS011;68734;50.452;11.636;2023-11-18T10:00:39;2.65;;;1.40;;
79284;SDS011;68734;50.452;11.636;2023-11-18T10:03:08;1.83;;;1.20;;
79284;SDS011;68734;50.452;11.636;2023-11-18T10:05:37;3.22;;;1.58;;
79284;SDS011;68734;50.452;11.636;2023-11-18T10:08:05;2.63;;;1.58;;
79284;SDS011;68734;50.452;11.636;2023-11-18T10:10:31;1.35;;;0.85;;
79284;SDS011;68734;50.452;11.636;2023-11-18T10:13:01;1.73;;;1.17;;
79284;SDS011;68734;50.452;11.636;2023-11-18T10:15:29;2.42;;;1.85;;
79284;SDS011;68734;50.452;11.636;2023-11-18T10:17:58;2.28;;;1.40;;
79284;SDS011;68734;50.452;11.636;2023-11-18T10:23:22;2.72;;;1.23;;
79284;SDS011;68734;50.452;11.636;2023-11-18T10:25:49;4.32;;;1.15;;
79284;SDS011;68734;50.452;11.636;2023-11-18T10:31:03;1.70;;;0.90;;
79284;SDS011;68734;50.452;11.636;2023-11-18T10:36:01;1.00;;;0.80;;
79284;SDS011;68734;50.452;11.636;2023-11-18T10:38:32;2.03;;;1.00;;
79284;SDS011;68734;50.452;11.636;2023-11-18T10:41:04;1.52;;;1.02;;
79284;SDS011;68734;50.452;11.636;2023-11-18T10:43:30;1.60;;;0.90;;
79284;SDS011;68734;50.452;11.636;2023-11-18T10:47:21;6.88;;;1.00;;
79284;SDS011;68734;50.452;11.636;2023-11-18T10:49:49;1.85;;;1.05;;
79284;SDS011;68734;50.452;11.636;2023-11-18T10:52:16;1.77;;;1.20;;
79284;SDS011;68734;50.452;11.636;2023-11-18T10:54:54;2.25;;;1.27;;
79284;SDS011;68734;50.452;11.636;2023-11-18T10:57:21;1.95;;;1.55;;
79284;SDS011;68734;50.452;11.636;2023-11-18T11:00:00;2.75;;;1.35;;
79284;SDS011;68734;50.452;11.636;2023-11-18T11:02:31;2.03;;;1.38;;
79284;SDS011;68734;50.452;11.636;2023-11-18T11:05:06;1.25;;;1.00;;
79284;SDS011;68734;50.452;11.636;2023-11-18T11:10:11;4.18;;;1.83;;
79284;SDS011;68734;50.452;11.636;2023-11-18T11:12:58;2.05;;;0.85;;
79284;SDS011;68734;50.452;11.636;2023-11-18T11:15:30;2.28;;;1.60;;
79284;SDS011;68734;50.452;11.636;2023-11-18T11:17:58;8.60;;;5.25;;
79284;SDS011;68734;50.452;11.636;2023-11-18T11:20:37;3.97;;;1.65;;
79284;SDS011;68734;50.452;11.636;2023-11-18T11:36:25;2.25;;;1.75;;
79284;SDS011;68734;50.452;11.636;2023-11-18T11:39:01;1.38;;;0.95;;
79284;SDS011;68734;50.452;11.636;2023-11-18T11:41:28;1.42;;;0.90;;
79284;SDS011;68734;50.452;11.636;2023-11-18T11:43:59;1.42;;;0.93;;
79284;SDS011;68734;50.452;11.636;2023-11-18T11:46:26;2.85;;;1.27;;
79284;SDS011;68734;50.452;11.636;2023-11-18T11:48:58;1.40;;;0.90;;
79284;SDS011;68734;50.452;11.636;2023-11-18T11:51:28;2.47;;;1.20;;
79284;SDS011;68734;50.452;11.636;2023-11-18T11:58:35;1.80;;;1.13;;
79284;SDS011;68734;50.452;11.636;2023-11-18T12:01:24;2.95;;;0.85;;
79284;SDS011;68734;50.452;11.636;2023-11-18T12:03:57;0.88;;;0.68;;
79284;SDS011;68734;50.452;11.636;2023-11-18T12:06:26;1.95;;;1.10;;
79284;SDS011;68734;50.452;11.636;2023-11-18T12:08:53;1.20;;;0.98;;
79284;SDS011;68734;50.452;11.636;2023-11-18T12:11:20;1.73;;;0.90;;
79284;SDS011;68734;50.452;11.636;2023-11-18T12:14:03;1.38;;;0.93;;
79284;SDS011;68734;50.452;11.636;2023-11-18T12:17:07;1.38;;;1.00;;
79284;SDS011;68734;50.452;11.636;2023-11-18T12:22:30;1.50;;;0.90;;
79284;SDS011;68734;50.452;11.636;2023-11-18T12:25:39;1.67;;;1.15;;
79284;SDS011;68734;50.452;11.636;2023-11-18T12:28:09;1.48;;;1.10;;
79284;SDS011;68734;50.452;11.636;2023-11-18T12:30:40;1.67;;;0.70;;
79284;SDS011;68734;50.452;11.636;2023-11-18T12:33:08;1.60;;;0.93;;
79284;SDS011;68734;50.452;11.636;2023-11-18T12:41:00;1.00;;;0.80;;
79284;SDS011;68734;50.452;11.636;2023-11-18T12:46:27;1.67;;;0.95;;
79284;SDS011;68734;50.452;11.636;2023-11-18T12:49:18;2.83;;;0.90;;
79284;SDS011;68734;50.452;11.636;2023-11-18T12:51:51;3.60;;;1.10;;
79284;SDS011;68734;50.452;11.636;2023-11-18T12:54:21;2.20;;;1.10;;
79284;SDS011;68734;50.452;11.636;2023-11-18T12:56:52;1.85;;;1.40;;
79284;SDS011;68734;50.452;11.636;2023-11-18T12:59:20;2.15;;;1.67;;
79284;SDS011;68734;50.452;11.636;2023-11-18T13:01:48;2.50;;;1.80;;
79284;SDS011;68734;50.452;11.636;2023-11-18T13:04:24;3.30;;;1.50;;
79284;SDS011;68734;50.452;11.636;2023-11-18T13:06:50;3.25;;;1.50;;
79284;SDS011;68734;50.452;11.636;2023-11-18T13:10:33;4.78;;;2.40;;
79284;SDS011;68734;50.452;11.636;2023-11-18T13:12:59;3.25;;;2.38;;
79284;SDS011;68734;50.452;11.636;2023-11-18T13:15:25;2.92;;;1.90;;
79284;SDS011;68734;50.452;11.636;2023-11-18T13:18:00;5.28;;;1.95;;
79284;SDS011;68734;50.452;11.636;2023-11-18T13:20:31;3.38;;;1.85;;
79284;SDS011;68734;50.452;11.636;2023-11-18T13:23:00;8.07;;;2.92;;
79284;SDS011;68734;50.452;11.636;2023-11-18T13:25:26;5.80;;;2.55;;
79284;SDS011;68734;50.452;11.636;2023-11-18T13:27:51;4.00;;;2.67;;
79284;SDS011;68734;50.452;11.636;2023-11-18T13:30:17;4.13;;;2.50;;
79284;SDS011;68734;50.452;11.636;2023-11-18T13:34:34;5.43;;;3.15;;
79284;SDS011;68734;50.452;11.636;2023-11-18T13:37:03;4.93;;;2.75;;
79284;SDS011;68734;50.452;11.636;2023-11-18T13:39:32;6.18;;;3.03;;
79284;SDS011;68734;50.452;11.636;2023-11-18T13:42:19;4.30;;;2.45;;
79284;SDS011;68734;50.452;11.636;2023-11-18T13:44:45;5.82;;;2.88;;
79284;SDS011;68734;50.452;11.636;2023-11-18T13:47:13;4.60;;;3.33;;
79284;SDS011;68734;50.452;11.636;2023-11-18T13:49:39;4.93;;;3.28;;
79284;SDS011;68734;50.452;11.636;2023-11-18T13:52:08;7.00;;;4.25;;
79284;SDS011;68734;50.452;11.636;2023-11-18T13:54:35;7.32;;;3.33;;
79284;SDS011;68734;50.452;11.636;2023-11-18T13:58:03;4.68;;;3.03;;
79284;SDS011;68734;50.452;11.636;2023-11-18T14:00:30;5.10;;;3.35;;
79284;SDS011;68734;50.452;11.636;2023-11-18T14:02:57;5.47;;;3.47;;
79284;SDS011;68734;50.452;11.636;2023-11-18T14:05:23;6.85;;;3.78;;
79284;SDS011;68734;50.452;11.636;2023-11-18T14:07:52;5.63;;;3.97;;
79284;SDS011;68734;50.452;11.636;2023-11-18T14:10:21;4.75;;;3.50;;
79284;SDS011;68734;50.452;11.636;2023-11-18T14:13:03;4.72;;;3.10;;
79284;SDS011;68734;50.452;11.636;2023-11-18T14:15:30;6.45;;;3.58;;
79284;SDS011;68734;50.452;11.636;2023-11-18T14:17:56;5.10;;;3.40;;
79284;SDS011;68734;50.452;11.636;2023-11-18T14:22:31;5.60;;;3.80;;
79284;SDS011;68734;50.452;11.636;2023-11-18T14:24:56;5.95;;;3.78;;
79284;SDS011;68734;50.452;11.636;2023-11-18T14:27:22;5.65;;;3.25;;
79284;SDS011;68734;50.452;11.636;2023-11-18T14:29:47;6.93;;;3.90;;
79284;SDS011;68734;50.452;11.636;2023-11-18T14:32:12;6.70;;;3.63;;
79284;SDS011;68734;50.452;11.636;2023-11-18T14:34:39;5.70;;;3.97;;
79284;SDS011;68734;50.452;11.636;2023-11-18T14:37:07;6.60;;;4.38;;
79284;SDS011;68734;50.452;11.636;2023-11-18T14:39:32;8.30;;;5.55;;
79284;SDS011;68734;50.452;11.636;2023-11-18T14:41:57;5.47;;;2.97;;
79284;SDS011;68734;50.452;11.636;2023-11-18T14:46:46;4.28;;;3.33;;
79284;SDS011;68734;50.452;11.636;2023-11-18T14:49:12;5.40;;;3.60;;
79284;SDS011;68734;50.452;11.636;2023-11-18T14:51:37;8.82;;;4.57;;
79284;SDS011;68734;50.452;11.636;2023-11-18T14:54:03;7.07;;;5.03;;
79284;SDS011;68734;50.452;11.636;2023-11-18T14:56:30;10.10;;;5.68;;
79284;SDS011;68734;50.452;11.636;2023-11-18T14:58:56;9.82;;;4.55;;
79284;SDS011;68734;50.452;11.636;2023-11-18T15:01:22;8.48;;;4.60;;
79284;SDS011;68734;50.452;11.636;2023-11-18T15:03:47;6.05;;;3.83;;
79284;SDS011;68734;50.452;11.636;2023-11-18T15:06:13;6.65;;;4.50;;
79284;SDS011;68734;50.452;11.636;2023-11-18T15:09:33;9.18;;;3.20;;
79284;SDS011;68734;50.452;11.636;2023-11-18T15:11:58;4.53;;;3.33;;
79284;SDS011;68734;50.452;11.636;2023-11-18T15:14:24;9.68;;;4.25;;
79284;SDS011;68734;50.452;11.636;2023-11-18T15:16:50;7.45;;;4.80;;
79284;SDS011;68734;50.452;11.636;2023-11-18T15:19:15;5.68;;;3.95;;
79284;SDS011;68734;50.452;11.636;2023-11-18T15:21:42;7.90;;;4.43;;
79284;SDS011;68734;50.452;11.636;2023-11-18T15:24:07;8.25;;;4.50;;
79284;SDS011;68734;50.452;11.636;2023-11-18T15:26:34;6.95;;;4.10;;
79284;SDS011;68734;50.452;11.636;2023-11-18T15:29:01;5.38;;;4.05;;
79284;SDS011;68734;50.452;11.636;2023-11-18T15:33:24;9.02;;;5.00;;
79284;SDS011;68734;50.452;11.636;2023-11-18T15:35:49;9.45;;;5.25;;
79284;SDS011;68734;50.452;11.636;2023-11-18T15:38:15;6.20;;;4.80;;
79284;SDS011;68734;50.452;11.636;2023-11-18T15:40:43;6.65;;;3.97;;
79284;SDS011;68734;50.452;11.636;2023-11-18T15:43:10;8.23;;;4.45;;
79284;SDS011;68734;50.452;11.636;2023-11-18T15:45:38;6.30;;;4.18;;
79284;SDS011;68734;50.452;11.636;2023-11-18T15:48:04;7.25;;;4.25;;
79284;SDS011;68734;50.452;11.636;2023-11-18T15:50:30;6.72;;;4.35;;
79284;SDS011;68734;50.452;11.636;2023-11-18T15:52:57;8.10;;;4.00;;
79284;SDS011;68734;50.452;11.636;2023-11-18T15:56:56;5.82;;;4.20;;
79284;SDS011;68734;50.452;11.636;2023-11-18T15:59:21;7.38;;;3.90;;
79284;SDS011;68734;50.452;11.636;2023-11-18T16:01:50;8.77;;;4.85;;
79284;SDS011;68734;50.452;11.636;2023-11-18T16:04:15;9.60;;;5.53;;
79284;SDS011;68734;50.452;11.636;2023-11-18T16:06:43;7.97;;;4.70;;
79284;SDS011;68734;50.452;11.636;2023-11-18T16:09:08;9.25;;;4.45;;
79284;SDS011;68734;50.452;11.636;2023-11-18T16:11:36;6.60;;;4.38;;
79284;SDS011;68734;50.452;11.636;2023-11-18T16:14:01;7.40;;;4.88;;
79284;SDS011;68734;50.452;11.636;2023-11-18T16:16:27;7.38;;;4.80;;
79284;SDS011;68734;50.452;11.636;2023-11-18T16:20:25;7.68;;;5.22;;
79284;SDS011;68734;50.452;11.636;2023-11-18T16:22:57;8.52;;;5.13;;
79284;SDS011;68734;50.452;11.636;2023-11-18T16:25:27;8.07;;;5.57;;